sensor_id;sensor_type;location;lat;lon;timestamp;P1;durP1;ratioP1;P2;durP2;ratioP2
43297;SDS011;28892;55.640;37.532;2023-02-27T00:01:35;3.90;;;2.60;;
43297;SDS011;28892;55.640;37.532;2023-02-27T00:04:00;4.53;;;3.53;;
43297;SDS011;28892;55.640;37.532;2023-02-27T00:06:26;5.77;;;4.10;;
43297;SDS011;28892;55.640;37.532;2023-02-27T00:08:53;5.80;;;3.90;;
43297;SDS011;28892;55.640;37.532;2023-02-27T00:11:19;5.47;;;3.40;;
43297;SDS011;28892;55.640;37.532;2023-02-27T00:13:44;4.83;;;4.00;;
43297;SDS011;28892;55.640;37.532;2023-02-27T00:16:10;4.20;;;3.20;;
43297;SDS011;28892;55.640;37.532;2023-02-27T00:18:36;5.60;;;4.00;;
43297;SDS011;28892;55.640;37.532;2023-02-27T00:21:01;3.50;;;3.17;;
43297;SDS011;28892;55.640;37.532;2023-02-27T00:23:27;7.93;;;4.40;;
43297;SDS011;28892;55.640;37.532;2023-02-27T00:25:53;4.50;;;3.80;;
43297;SDS011;28892;55.640;37.532;2023-02-27T00:28:20;5.47;;;4.00;;
43297;SDS011;28892;55.640;37.532;2023-02-27T00:30:47;5.27;;;3.90;;
43297;SDS011;28892;55.640;37.532;2023-02-27T00:33:12;5.80;;;4.60;;
43297;SDS011;28892;55.640;37.532;2023-02-27T00:35:40;3.97;;;3.10;;
43297;SDS011;28892;55.640;37.532;2023-02-27T00:38:06;5.30;;;4.10;;
43297;SDS011;28892;55.640;37.532;2023-02-27T00:40:32;5.30;;;2.60;;
43297;SDS011;28892;55.640;37.532;2023-02-27T00:43:00;2.70;;;2.33;;
43297;SDS011;28892;55.640;37.532;2023-02-27T00:45:28;4.93;;;3.87;;
43297;SDS011;28892;55.640;37.532;2023-02-27T00:47:53;4.90;;;3.97;;
43297;SDS011;28892;55.640;37.532;2023-02-27T00:50:19;5.73;;;4.03;;
43297;SDS011;28892;55.640;37.532;2023-02-27T00:52:45;4.17;;;2.73;;
43297;SDS011;28892;55.640;37.532;2023-02-27T00:55:11;5.00;;;4.03;;
43297;SDS011;28892;55.640;37.532;2023-02-27T00:57:38;4.87;;;3.50;;
43297;SDS011;28892;55.640;37.532;2023-02-27T01:00:07;4.80;;;4.13;;
43297;SDS011;28892;55.640;37.532;2023-02-27T01:02:34;5.80;;;3.83;;
43297;SDS011;28892;55.640;37.532;2023-02-27T01:04:59;5.53;;;3.97;;
43297;SDS011;28892;55.640;37.532;2023-02-27T01:07:26;5.13;;;3.97;;
43297;SDS011;28892;55.640;37.532;2023-02-27T01:09:52;5.33;;;4.20;;
43297;SDS011;28892;55.640;37.532;2023-02-27T01:12:18;5.63;;;4.17;;
43297;SDS011;28892;55.640;37.532;2023-02-27T01:14:43;5.47;;;4.20;;
43297;SDS011;28892;55.640;37.532;2023-02-27T01:17:09;4.97;;;3.93;;
43297;SDS011;28892;55.640;37.532;2023-02-27T01:19:36;5.10;;;4.03;;
43297;SDS011;28892;55.640;37.532;2023-02-27T01:22:04;5.90;;;4.30;;
43297;SDS011;28892;55.640;37.532;2023-02-27T01:24:31;4.50;;;3.47;;
43297;SDS011;28892;55.640;37.532;2023-02-27T01:26:57;4.93;;;4.27;;
43297;SDS011;28892;55.640;37.532;2023-02-27T01:29:23;5.13;;;4.00;;
43297;SDS011;28892;55.640;37.532;2023-02-27T01:31:49;4.13;;;2.87;;
43297;SDS011;28892;55.640;37.532;2023-02-27T01:34:15;5.53;;;3.83;;
43297;SDS011;28892;55.640;37.532;2023-02-27T01:36:41;5.53;;;4.10;;
43297;SDS011;28892;55.640;37.532;2023-02-27T01:39:07;5.57;;;4.20;;
43297;SDS011;28892;55.640;37.532;2023-02-27T01:41:32;5.07;;;4.03;;
43297;SDS011;28892;55.640;37.532;2023-02-27T01:46:29;5.40;;;4.00;;
43297;SDS011;28892;55.640;37.532;2023-02-27T01:48:57;6.10;;;4.37;;
43297;SDS011;28892;55.640;37.532;2023-02-27T01:51:29;5.40;;;4.17;;
43297;SDS011;28892;55.640;37.532;2023-02-27T01:53:59;5.05;;;3.22;;
43297;SDS011;28892;55.640;37.532;2023-02-27T01:56:28;5.93;;;4.60;;
43297;SDS011;28892;55.640;37.532;2023-02-27T01:58:57;6.67;;;4.27;;
43297;SDS011;28892;55.640;37.532;2023-02-27T02:01:28;5.33;;;3.80;;
43297;SDS011;28892;55.640;37.532;2023-02-27T02:06:45;4.97;;;3.80;;
43297;SDS011;28892;55.640;37.532;2023-02-27T02:09:18;6.30;;;4.93;;
43297;SDS011;28892;55.640;37.532;2023-02-27T02:11:46;6.47;;;4.73;;
43297;SDS011;28892;55.640;37.532;2023-02-27T02:14:16;6.10;;;4.30;;
43297;SDS011;28892;55.640;37.532;2023-02-27T02:22:36;5.67;;;4.57;;
43297;SDS011;28892;55.640;37.532;2023-02-27T02:27:44;5.30;;;4.30;;
43297;SDS011;28892;55.640;37.532;2023-02-27T02:33:29;5.60;;;4.00;;
43297;SDS011;28892;55.640;37.532;2023-02-27T02:49:19;6.63;;;4.90;;
43297;SDS011;28892;55.640;37.532;2023-02-27T02:55:08;5.40;;;4.37;;
43297;SDS011;28892;55.640;37.532;2023-02-27T02:57:47;5.93;;;4.23;;
43297;SDS011;28892;55.640;37.532;2023-02-27T03:00:20;5.97;;;4.67;;
43297;SDS011;28892;55.640;37.532;2023-02-27T03:02:51;5.00;;;4.17;;
43297;SDS011;28892;55.640;37.532;2023-02-27T03:05:23;6.80;;;4.68;;
43297;SDS011;28892;55.640;37.532;2023-02-27T03:07:53;5.77;;;4.40;;
43297;SDS011;28892;55.640;37.532;2023-02-27T03:10:27;5.57;;;4.17;;
43297;SDS011;28892;55.640;37.532;2023-02-27T03:13:01;7.47;;;4.38;;
43297;SDS011;28892;55.640;37.532;2023-02-27T03:15:39;6.83;;;4.40;;
43297;SDS011;28892;55.640;37.532;2023-02-27T03:18:15;6.53;;;4.60;;
43297;SDS011;28892;55.640;37.532;2023-02-27T03:20:47;6.23;;;4.53;;
43297;SDS011;28892;55.640;37.532;2023-02-27T03:23:22;5.40;;;4.27;;
43297;SDS011;28892;55.640;37.532;2023-02-27T03:25:54;4.93;;;3.40;;
43297;SDS011;28892;55.640;37.532;2023-02-27T03:28:22;6.03;;;4.37;;
43297;SDS011;28892;55.640;37.532;2023-02-27T03:31:06;4.77;;;3.97;;
43297;SDS011;28892;55.640;37.532;2023-02-27T03:33:39;6.43;;;4.40;;
43297;SDS011;28892;55.640;37.532;2023-02-27T03:38:54;4.27;;;3.50;;
43297;SDS011;28892;55.640;37.532;2023-02-27T03:42:28;6.03;;;4.20;;
43297;SDS011;28892;55.640;37.532;2023-02-27T03:47:57;5.90;;;3.87;;
43297;SDS011;28892;55.640;37.532;2023-02-27T03:50:23;6.23;;;4.73;;
43297;SDS011;28892;55.640;37.532;2023-02-27T03:52:49;5.90;;;4.47;;
43297;SDS011;28892;55.640;37.532;2023-02-27T03:55:23;6.47;;;4.73;;
43297;SDS011;28892;55.640;37.532;2023-02-27T03:57:53;4.20;;;3.43;;
43297;SDS011;28892;55.640;37.532;2023-02-27T04:00:20;5.67;;;3.80;;
43297;SDS011;28892;55.640;37.532;2023-02-27T04:02:48;6.47;;;4.47;;
43297;SDS011;28892;55.640;37.532;2023-02-27T04:05:19;5.40;;;4.23;;
43297;SDS011;28892;55.640;37.532;2023-02-27T04:10:36;6.30;;;4.90;;
43297;SDS011;28892;55.640;37.532;2023-02-27T04:27:23;8.40;;;5.13;;
43297;SDS011;28892;55.640;37.532;2023-02-27T04:32:53;6.20;;;4.43;;
43297;SDS011;28892;55.640;37.532;2023-02-27T04:37:59;7.27;;;4.73;;
43297;SDS011;28892;55.640;37.532;2023-02-27T04:40:41;6.40;;;4.83;;
43297;SDS011;28892;55.640;37.532;2023-02-27T04:43:12;5.20;;;4.47;;
43297;SDS011;28892;55.640;37.532;2023-02-27T04:45:39;6.57;;;5.00;;
43297;SDS011;28892;55.640;37.532;2023-02-27T04:48:10;5.37;;;4.80;;
43297;SDS011;28892;55.640;37.532;2023-02-27T04:50:44;11.03;;;5.10;;
43297;SDS011;28892;55.640;37.532;2023-02-27T04:53:59;5.00;;;3.80;;
43297;SDS011;28892;55.640;37.532;2023-02-27T04:56:20;8.17;;;4.67;;
43297;SDS011;28892;55.640;37.532;2023-02-27T04:58:59;6.73;;;4.90;;
43297;SDS011;28892;55.640;37.532;2023-02-27T05:01:36;5.93;;;5.03;;
43297;SDS011;28892;55.640;37.532;2023-02-27T05:04:10;5.60;;;4.37;;
43297;SDS011;28892;55.640;37.532;2023-02-27T05:06:41;5.60;;;4.17;;
43297;SDS011;28892;55.640;37.532;2023-02-27T05:09:19;7.30;;;5.07;;
43297;SDS011;28892;55.640;37.532;2023-02-27T05:12:17;8.47;;;5.40;;
43297;SDS011;28892;55.640;37.532;2023-02-27T05:14:59;6.87;;;5.13;;
43297;SDS011;28892;55.640;37.532;2023-02-27T05:17:33;6.40;;;5.13;;
43297;SDS011;28892;55.640;37.532;2023-02-27T05:20:03;8.93;;;4.77;;
43297;SDS011;28892;55.640;37.532;2023-02-27T05:22:51;7.53;;;5.03;;
43297;SDS011;28892;55.640;37.532;2023-02-27T05:25:30;8.20;;;5.27;;
43297;SDS011;28892;55.640;37.532;2023-02-27T05:28:12;7.53;;;5.07;;
43297;SDS011;28892;55.640;37.532;2023-02-27T05:31:06;6.13;;;5.33;;
43297;SDS011;28892;55.640;37.532;2023-02-27T05:33:38;8.90;;;5.07;;
43297;SDS011;28892;55.640;37.532;2023-02-27T05:36:10;6.30;;;4.80;;
43297;SDS011;28892;55.640;37.532;2023-02-27T05:38:44;6.80;;;4.97;;
43297;SDS011;28892;55.640;37.532;2023-02-27T05:41:15;8.07;;;5.67;;
43297;SDS011;28892;55.640;37.532;2023-02-27T05:43:49;7.77;;;5.27;;
43297;SDS011;28892;55.640;37.532;2023-02-27T05:46:22;8.60;;;6.00;;
43297;SDS011;28892;55.640;37.532;2023-02-27T05:51:40;6.33;;;4.90;;
43297;SDS011;28892;55.640;37.532;2023-02-27T05:54:11;7.60;;;5.17;;
43297;SDS011;28892;55.640;37.532;2023-02-27T05:56:55;7.63;;;4.97;;
43297;SDS011;28892;55.640;37.532;2023-02-27T05:59:31;7.47;;;4.83;;
43297;SDS011;28892;55.640;37.532;2023-02-27T06:02:03;6.70;;;4.90;;
43297;SDS011;28892;55.640;37.532;2023-02-27T06:04:30;5.73;;;4.50;;
43297;SDS011;28892;55.640;37.532;2023-02-27T06:06:56;6.67;;;4.97;;
43297;SDS011;28892;55.640;37.532;2023-02-27T06:09:22;6.07;;;4.90;;
43297;SDS011;28892;55.640;37.532;2023-02-27T06:11:48;6.80;;;4.87;;
43297;SDS011;28892;55.640;37.532;2023-02-27T06:14:13;5.80;;;5.00;;
43297;SDS011;28892;55.640;37.532;2023-02-27T06:16:39;7.33;;;5.03;;
43297;SDS011;28892;55.640;37.532;2023-02-27T06:19:05;7.63;;;5.73;;
43297;SDS011;28892;55.640;37.532;2023-02-27T06:21:31;6.40;;;5.13;;
43297;SDS011;28892;55.640;37.532;2023-02-27T06:23:57;8.53;;;4.40;;
43297;SDS011;28892;55.640;37.532;2023-02-27T06:26:22;6.13;;;4.40;;
43297;SDS011;28892;55.640;37.532;2023-02-27T06:28:48;7.77;;;5.30;;
43297;SDS011;28892;55.640;37.532;2023-02-27T06:31:14;5.63;;;4.40;;
43297;SDS011;28892;55.640;37.532;2023-02-27T06:33:40;7.67;;;4.97;;
43297;SDS011;28892;55.640;37.532;2023-02-27T06:36:06;6.47;;;4.83;;
43297;SDS011;28892;55.640;37.532;2023-02-27T06:38:32;6.17;;;4.97;;
43297;SDS011;28892;55.640;37.532;2023-02-27T06:40:58;6.37;;;4.87;;
43297;SDS011;28892;55.640;37.532;2023-02-27T06:43:24;6.37;;;4.87;;
43297;SDS011;28892;55.640;37.532;2023-02-27T06:45:52;6.40;;;5.07;;
43297;SDS011;28892;55.640;37.532;2023-02-27T06:48:18;5.63;;;4.30;;
43297;SDS011;28892;55.640;37.532;2023-02-27T06:50:44;6.77;;;4.80;;
43297;SDS011;28892;55.640;37.532;2023-02-27T06:53:10;5.43;;;4.70;;
43297;SDS011;28892;55.640;37.532;2023-02-27T06:55:35;6.50;;;4.57;;
43297;SDS011;28892;55.640;37.532;2023-02-27T06:58:01;6.90;;;5.00;;
43297;SDS011;28892;55.640;37.532;2023-02-27T07:00:27;7.97;;;4.97;;
43297;SDS011;28892;55.640;37.532;2023-02-27T07:02:53;5.83;;;4.37;;
43297;SDS011;28892;55.640;37.532;2023-02-27T07:05:19;5.57;;;4.40;;
43297;SDS011;28892;55.640;37.532;2023-02-27T07:07:44;5.67;;;4.83;;
43297;SDS011;28892;55.640;37.532;2023-02-27T07:10:11;7.30;;;4.87;;
43297;SDS011;28892;55.640;37.532;2023-02-27T07:12:38;5.33;;;4.40;;
43297;SDS011;28892;55.640;37.532;2023-02-27T07:15:05;8.10;;;5.23;;
43297;SDS011;28892;55.640;37.532;2023-02-27T07:17:34;8.30;;;4.60;;
43297;SDS011;28892;55.640;37.532;2023-02-27T07:20:00;5.47;;;4.40;;
43297;SDS011;28892;55.640;37.532;2023-02-27T07:22:25;7.10;;;5.33;;
43297;SDS011;28892;55.640;37.532;2023-02-27T07:24:51;5.87;;;4.17;;
43297;SDS011;28892;55.640;37.532;2023-02-27T07:27:17;9.17;;;6.50;;
43297;SDS011;28892;55.640;37.532;2023-02-27T07:29:43;6.23;;;4.50;;
43297;SDS011;28892;55.640;37.532;2023-02-27T07:32:09;5.67;;;4.93;;
43297;SDS011;28892;55.640;37.532;2023-02-27T07:34:35;6.83;;;4.63;;
43297;SDS011;28892;55.640;37.532;2023-02-27T07:37:01;6.40;;;4.97;;
43297;SDS011;28892;55.640;37.532;2023-02-27T07:39:26;4.80;;;3.73;;
43297;SDS011;28892;55.640;37.532;2023-02-27T07:41:52;7.03;;;4.77;;
43297;SDS011;28892;55.640;37.532;2023-02-27T07:44:20;5.70;;;4.50;;
43297;SDS011;28892;55.640;37.532;2023-02-27T07:46:46;5.57;;;4.00;;
43297;SDS011;28892;55.640;37.532;2023-02-27T07:49:12;5.03;;;3.70;;
43297;SDS011;28892;55.640;37.532;2023-02-27T07:51:40;5.53;;;4.20;;
43297;SDS011;28892;55.640;37.532;2023-02-27T07:54:06;6.03;;;3.70;;
43297;SDS011;28892;55.640;37.532;2023-02-27T07:56:34;6.17;;;4.43;;
43297;SDS011;28892;55.640;37.532;2023-02-27T07:59:00;4.90;;;3.90;;
43297;SDS011;28892;55.640;37.532;2023-02-27T08:01:29;6.00;;;4.10;;
43297;SDS011;28892;55.640;37.532;2023-02-27T08:03:55;6.43;;;4.03;;
43297;SDS011;28892;55.640;37.532;2023-02-27T08:06:21;5.37;;;4.20;;
43297;SDS011;28892;55.640;37.532;2023-02-27T08:08:47;6.40;;;4.20;;
43297;SDS011;28892;55.640;37.532;2023-02-27T08:11:16;4.60;;;3.70;;
43297;SDS011;28892;55.640;37.532;2023-02-27T08:13:42;4.73;;;3.97;;
43297;SDS011;28892;55.640;37.532;2023-02-27T08:16:30;4.77;;;4.17;;
43297;SDS011;28892;55.640;37.532;2023-02-27T08:18:55;5.77;;;4.07;;
43297;SDS011;28892;55.640;37.532;2023-02-27T08:21:24;4.53;;;3.53;;
43297;SDS011;28892;55.640;37.532;2023-02-27T08:23:51;4.70;;;3.83;;
43297;SDS011;28892;55.640;37.532;2023-02-27T08:26:20;4.57;;;3.50;;
43297;SDS011;28892;55.640;37.532;2023-02-27T08:28:51;5.57;;;3.97;;
43297;SDS011;28892;55.640;37.532;2023-02-27T08:31:20;4.50;;;3.83;;
43297;SDS011;28892;55.640;37.532;2023-02-27T08:33:45;4.67;;;3.80;;
43297;SDS011;28892;55.640;37.532;2023-02-27T08:36:11;4.60;;;4.00;;
43297;SDS011;28892;55.640;37.532;2023-02-27T08:38:37;5.57;;;4.00;;
43297;SDS011;28892;55.640;37.532;2023-02-27T08:41:03;4.53;;;3.70;;
43297;SDS011;28892;55.640;37.532;2023-02-27T08:43:31;4.30;;;3.90;;
43297;SDS011;28892;55.640;37.532;2023-02-27T08:46:02;5.47;;;3.80;;
43297;SDS011;28892;55.640;37.532;2023-02-27T08:48:28;5.70;;;3.97;;
43297;SDS011;28892;55.640;37.532;2023-02-27T08:50:54;4.93;;;3.57;;
43297;SDS011;28892;55.640;37.532;2023-02-27T08:53:22;5.10;;;3.80;;
43297;SDS011;28892;55.640;37.532;2023-02-27T08:55:48;3.93;;;3.40;;
43297;SDS011;28892;55.640;37.532;2023-02-27T08:58:18;4.97;;;3.87;;
43297;SDS011;28892;55.640;37.532;2023-02-27T09:00:46;5.13;;;4.10;;
43297;SDS011;28892;55.640;37.532;2023-02-27T09:03:16;4.63;;;3.80;;
43297;SDS011;28892;55.640;37.532;2023-02-27T09:06:11;5.37;;;4.03;;
43297;SDS011;28892;55.640;37.532;2023-02-27T09:08:42;4.10;;;3.70;;
43297;SDS011;28892;55.640;37.532;2023-02-27T09:11:11;4.97;;;3.60;;
43297;SDS011;28892;55.640;37.532;2023-02-27T09:13:37;4.63;;;3.43;;
43297;SDS011;28892;55.640;37.532;2023-02-27T09:16:24;4.97;;;3.43;;
43297;SDS011;28892;55.640;37.532;2023-02-27T09:19:10;5.33;;;3.77;;
43297;SDS011;28892;55.640;37.532;2023-02-27T09:21:55;4.87;;;3.77;;
43297;SDS011;28892;55.640;37.532;2023-02-27T09:24:21;4.80;;;3.60;;
43297;SDS011;28892;55.640;37.532;2023-02-27T09:26:47;5.70;;;4.03;;
43297;SDS011;28892;55.640;37.532;2023-02-27T09:29:13;4.63;;;3.57;;
43297;SDS011;28892;55.640;37.532;2023-02-27T09:31:39;4.10;;;3.57;;
43297;SDS011;28892;55.640;37.532;2023-02-27T09:34:06;4.73;;;3.90;;
43297;SDS011;28892;55.640;37.532;2023-02-27T09:36:32;6.10;;;4.20;;
43297;SDS011;28892;55.640;37.532;2023-02-27T09:38:58;5.57;;;4.20;;
43297;SDS011;28892;55.640;37.532;2023-02-27T09:43:50;6.17;;;4.13;;
43297;SDS011;28892;55.640;37.532;2023-02-27T09:46:17;4.77;;;3.80;;
43297;SDS011;28892;55.640;37.532;2023-02-27T09:48:55;5.93;;;3.80;;
43297;SDS011;28892;55.640;37.532;2023-02-27T09:51:26;5.07;;;3.70;;
43297;SDS011;28892;55.640;37.532;2023-02-27T09:53:54;4.70;;;3.90;;
43297;SDS011;28892;55.640;37.532;2023-02-27T09:56:31;5.37;;;4.30;;
43297;SDS011;28892;55.640;37.532;2023-02-27T09:59:17;4.77;;;3.77;;
43297;SDS011;28892;55.640;37.532;2023-02-27T10:01:47;4.67;;;3.53;;
43297;SDS011;28892;55.640;37.532;2023-02-27T10:12:58;4.83;;;3.87;;
43297;SDS011;28892;55.640;37.532;2023-02-27T10:15:35;5.20;;;3.37;;
43297;SDS011;28892;55.640;37.532;2023-02-27T10:18:18;4.90;;;3.60;;
43297;SDS011;28892;55.640;37.532;2023-02-27T10:20:53;4.50;;;3.77;;
43297;SDS011;28892;55.640;37.532;2023-02-27T10:23:31;4.50;;;3.73;;
43297;SDS011;28892;55.640;37.532;2023-02-27T10:26:06;4.63;;;3.73;;
43297;SDS011;28892;55.640;37.532;2023-02-27T10:28:42;4.37;;;3.50;;
43297;SDS011;28892;55.640;37.532;2023-02-27T10:31:10;4.00;;;3.50;;
43297;SDS011;28892;55.640;37.532;2023-02-27T10:33:47;6.80;;;4.10;;
43297;SDS011;28892;55.640;37.532;2023-02-27T10:36:15;5.30;;;3.90;;
43297;SDS011;28892;55.640;37.532;2023-02-27T10:39:17;5.13;;;4.00;;
43297;SDS011;28892;55.640;37.532;2023-02-27T10:41:45;6.83;;;4.07;;
43297;SDS011;28892;55.640;37.532;2023-02-27T10:44:22;5.60;;;4.10;;
43297;SDS011;28892;55.640;37.532;2023-02-27T10:46:48;2.80;;;2.50;;
43297;SDS011;28892;55.640;37.532;2023-02-27T10:49:18;5.60;;;4.30;;
43297;SDS011;28892;55.640;37.532;2023-02-27T10:52:08;6.60;;;3.87;;
43297;SDS011;28892;55.640;37.532;2023-02-27T10:54:35;5.40;;;3.97;;
43297;SDS011;28892;55.640;37.532;2023-02-27T10:57:04;5.73;;;3.90;;
43297;SDS011;28892;55.640;37.532;2023-02-27T10:59:48;6.60;;;4.23;;
43297;SDS011;28892;55.640;37.532;2023-02-27T11:02:38;6.63;;;4.37;;
43297;SDS011;28892;55.640;37.532;2023-02-27T11:08:21;4.65;;;3.67;;
43297;SDS011;28892;55.640;37.532;2023-02-27T11:11:09;4.73;;;3.93;;
43297;SDS011;28892;55.640;37.532;2023-02-27T11:13:37;5.47;;;3.90;;
43297;SDS011;28892;55.640;37.532;2023-02-27T11:18:40;4.80;;;3.50;;
43297;SDS011;28892;55.640;37.532;2023-02-27T11:21:39;4.25;;;3.40;;
43297;SDS011;28892;55.640;37.532;2023-02-27T11:24:17;4.40;;;3.63;;
43297;SDS011;28892;55.640;37.532;2023-02-27T11:27:03;4.63;;;3.80;;
43297;SDS011;28892;55.640;37.532;2023-02-27T11:29:54;4.10;;;2.73;;
43297;SDS011;28892;55.640;37.532;2023-02-27T11:32:43;4.73;;;3.90;;
43297;SDS011;28892;55.640;37.532;2023-02-27T11:35:39;4.07;;;3.30;;
43297;SDS011;28892;55.640;37.532;2023-02-27T11:38:06;4.63;;;3.43;;
43297;SDS011;28892;55.640;37.532;2023-02-27T11:40:51;5.73;;;3.87;;
43297;SDS011;28892;55.640;37.532;2023-02-27T11:43:39;5.73;;;3.87;;
43297;SDS011;28892;55.640;37.532;2023-02-27T11:46:18;5.53;;;4.10;;
43297;SDS011;28892;55.640;37.532;2023-02-27T11:48:47;5.82;;;4.22;;
43297;SDS011;28892;55.640;37.532;2023-02-27T11:56:37;6.67;;;4.13;;
43297;SDS011;28892;55.640;37.532;2023-02-27T12:01:44;6.43;;;4.87;;
43297;SDS011;28892;55.640;37.532;2023-02-27T12:09:50;5.47;;;3.80;;
43297;SDS011;28892;55.640;37.532;2023-02-27T12:34:02;5.80;;;3.60;;
43297;SDS011;28892;55.640;37.532;2023-02-27T12:36:31;5.13;;;4.00;;
43297;SDS011;28892;55.640;37.532;2023-02-27T12:39:00;4.67;;;3.57;;
43297;SDS011;28892;55.640;37.532;2023-02-27T12:41:31;5.70;;;3.83;;
43297;SDS011;28892;55.640;37.532;2023-02-27T12:50:22;6.05;;;3.92;;
43297;SDS011;28892;55.640;37.532;2023-02-27T12:55:47;4.50;;;3.50;;
43297;SDS011;28892;55.640;37.532;2023-02-27T12:58:22;9.03;;;4.30;;
43297;SDS011;28892;55.640;37.532;2023-02-27T13:01:01;4.37;;;3.30;;
43297;SDS011;28892;55.640;37.532;2023-02-27T13:03:43;3.50;;;2.67;;
43297;SDS011;28892;55.640;37.532;2023-02-27T13:06:44;4.25;;;3.53;;
43297;SDS011;28892;55.640;37.532;2023-02-27T13:09:43;6.73;;;3.90;;
43297;SDS011;28892;55.640;37.532;2023-02-27T13:15:30;5.55;;;3.92;;
43297;SDS011;28892;55.640;37.532;2023-02-27T13:18:37;5.37;;;3.63;;
43297;SDS011;28892;55.640;37.532;2023-02-27T13:21:29;5.30;;;3.93;;
43297;SDS011;28892;55.640;37.532;2023-02-27T13:24:42;5.87;;;4.03;;
43297;SDS011;28892;55.640;37.532;2023-02-27T13:27:34;6.27;;;3.90;;
43297;SDS011;28892;55.640;37.532;2023-02-27T13:32:58;4.55;;;3.67;;
43297;SDS011;28892;55.640;37.532;2023-02-27T13:35:44;5.00;;;4.00;;
43297;SDS011;28892;55.640;37.532;2023-02-27T13:39:16;6.17;;;4.50;;
43297;SDS011;28892;55.640;37.532;2023-02-27T13:52:52;6.33;;;4.20;;
43297;SDS011;28892;55.640;37.532;2023-02-27T13:55:46;5.83;;;4.27;;
43297;SDS011;28892;55.640;37.532;2023-02-27T13:58:42;4.67;;;4.10;;
43297;SDS011;28892;55.640;37.532;2023-02-27T14:01:46;3.73;;;3.23;;
43297;SDS011;28892;55.640;37.532;2023-02-27T14:04:30;6.23;;;4.70;;
43297;SDS011;28892;55.640;37.532;2023-02-27T14:07:19;6.60;;;5.13;;
43297;SDS011;28892;55.640;37.532;2023-02-27T14:09:49;7.30;;;3.87;;
43297;SDS011;28892;55.640;37.532;2023-02-27T14:12:27;5.07;;;4.23;;
43297;SDS011;28892;55.640;37.532;2023-02-27T14:15:01;7.28;;;5.13;;
43297;SDS011;28892;55.640;37.532;2023-02-27T14:20:08;7.27;;;5.30;;
43297;SDS011;28892;55.640;37.532;2023-02-27T14:22:42;6.00;;;4.70;;
43297;SDS011;28892;55.640;37.532;2023-02-27T14:31:57;6.47;;;4.50;;
43297;SDS011;28892;55.640;37.532;2023-02-27T14:34:25;7.87;;;4.47;;
43297;SDS011;28892;55.640;37.532;2023-02-27T14:36:56;7.17;;;5.47;;
43297;SDS011;28892;55.640;37.532;2023-02-27T14:39:37;7.07;;;5.63;;
43297;SDS011;28892;55.640;37.532;2023-02-27T14:44:39;7.40;;;5.50;;
43297;SDS011;28892;55.640;37.532;2023-02-27T14:47:17;7.00;;;5.27;;
43297;SDS011;28892;55.640;37.532;2023-02-27T14:49:49;6.07;;;4.93;;
43297;SDS011;28892;55.640;37.532;2023-02-27T14:52:25;5.23;;;3.63;;
43297;SDS011;28892;55.640;37.532;2023-02-27T14:55:18;5.90;;;4.03;;
43297;SDS011;28892;55.640;37.532;2023-02-27T14:58:10;7.33;;;5.40;;
43297;SDS011;28892;55.640;37.532;2023-02-27T15:00:45;7.27;;;5.33;;
43297;SDS011;28892;55.640;37.532;2023-02-27T15:03:19;8.57;;;5.97;;
43297;SDS011;28892;55.640;37.532;2023-02-27T15:05:47;7.73;;;5.50;;
43297;SDS011;28892;55.640;37.532;2023-02-27T15:08:16;7.03;;;5.30;;
43297;SDS011;28892;55.640;37.532;2023-02-27T15:10:48;6.68;;;5.05;;
43297;SDS011;28892;55.640;37.532;2023-02-27T15:13:38;8.40;;;5.63;;
43297;SDS011;28892;55.640;37.532;2023-02-27T15:18:52;9.17;;;5.10;;
43297;SDS011;28892;55.640;37.532;2023-02-27T15:21:20;7.30;;;5.30;;
43297;SDS011;28892;55.640;37.532;2023-02-27T15:23:58;5.93;;;4.90;;
43297;SDS011;28892;55.640;37.532;2023-02-27T15:26:26;7.40;;;5.40;;
43297;SDS011;28892;55.640;37.532;2023-02-27T15:28:59;7.70;;;5.33;;
43297;SDS011;28892;55.640;37.532;2023-02-27T15:31:31;5.80;;;4.30;;
43297;SDS011;28892;55.640;37.532;2023-02-27T15:34:00;6.83;;;5.03;;
43297;SDS011;28892;55.640;37.532;2023-02-27T15:36:33;7.37;;;4.73;;
43297;SDS011;28892;55.640;37.532;2023-02-27T15:39:02;9.30;;;4.67;;
43297;SDS011;28892;55.640;37.532;2023-02-27T15:41:32;7.17;;;4.97;;
43297;SDS011;28892;55.640;37.532;2023-02-27T15:43:58;5.83;;;4.17;;
43297;SDS011;28892;55.640;37.532;2023-02-27T15:46:26;6.17;;;4.33;;
43297;SDS011;28892;55.640;37.532;2023-02-27T15:48:52;7.93;;;4.53;;
43297;SDS011;28892;55.640;37.532;2023-02-27T15:51:19;5.90;;;4.83;;
43297;SDS011;28892;55.640;37.532;2023-02-27T15:53:49;6.93;;;4.80;;
43297;SDS011;28892;55.640;37.532;2023-02-27T15:56:24;7.40;;;5.05;;
43297;SDS011;28892;55.640;37.532;2023-02-27T15:58:55;8.07;;;4.97;;
43297;SDS011;28892;55.640;37.532;2023-02-27T16:01:24;8.07;;;5.30;;
43297;SDS011;28892;55.640;37.532;2023-02-27T16:03:54;7.80;;;5.27;;
43297;SDS011;28892;55.640;37.532;2023-02-27T16:06:30;7.93;;;5.87;;
43297;SDS011;28892;55.640;37.532;2023-02-27T16:12:11;6.80;;;4.67;;
43297;SDS011;28892;55.640;37.532;2023-02-27T16:18:01;7.03;;;4.73;;
43297;SDS011;28892;55.640;37.532;2023-02-27T16:23:24;7.37;;;5.03;;
43297;SDS011;28892;55.640;37.532;2023-02-27T16:26:02;7.43;;;4.90;;
43297;SDS011;28892;55.640;37.532;2023-02-27T16:28:29;6.30;;;4.73;;
43297;SDS011;28892;55.640;37.532;2023-02-27T16:31:10;7.37;;;5.60;;
43297;SDS011;28892;55.640;37.532;2023-02-27T16:33:49;6.87;;;5.17;;
43297;SDS011;28892;55.640;37.532;2023-02-27T16:36:18;6.57;;;5.13;;
43297;SDS011;28892;55.640;37.532;2023-02-27T16:38:46;7.83;;;5.20;;
43297;SDS011;28892;55.640;37.532;2023-02-27T16:41:14;7.60;;;5.10;;
43297;SDS011;28892;55.640;37.532;2023-02-27T16:43:42;6.43;;;5.03;;
43297;SDS011;28892;55.640;37.532;2023-02-27T16:46:10;7.50;;;5.07;;
43297;SDS011;28892;55.640;37.532;2023-02-27T16:48:51;7.30;;;5.30;;
43297;SDS011;28892;55.640;37.532;2023-02-27T16:51:20;7.05;;;4.80;;
43297;SDS011;28892;55.640;37.532;2023-02-27T16:53:49;6.60;;;4.33;;
43297;SDS011;28892;55.640;37.532;2023-02-27T16:56:16;8.50;;;5.27;;
43297;SDS011;28892;55.640;37.532;2023-02-27T16:58:50;7.27;;;5.10;;
43297;SDS011;28892;55.640;37.532;2023-02-27T17:01:40;4.97;;;3.73;;
43297;SDS011;28892;55.640;37.532;2023-02-27T17:04:06;6.30;;;4.67;;
43297;SDS011;28892;55.640;37.532;2023-02-27T17:06:38;6.63;;;4.80;;
43297;SDS011;28892;55.640;37.532;2023-02-27T17:09:10;7.53;;;4.93;;
43297;SDS011;28892;55.640;37.532;2023-02-27T17:12:24;7.47;;;4.37;;
43297;SDS011;28892;55.640;37.532;2023-02-27T17:14:50;7.30;;;5.13;;
43297;SDS011;28892;55.640;37.532;2023-02-27T17:17:19;6.33;;;4.43;;
43297;SDS011;28892;55.640;37.532;2023-02-27T17:19:45;6.23;;;4.60;;
43297;SDS011;28892;55.640;37.532;2023-02-27T17:22:11;6.60;;;4.90;;
43297;SDS011;28892;55.640;37.532;2023-02-27T17:24:37;5.83;;;4.07;;
43297;SDS011;28892;55.640;37.532;2023-02-27T17:27:06;8.57;;;5.43;;
43297;SDS011;28892;55.640;37.532;2023-02-27T17:29:35;9.83;;;4.83;;
43297;SDS011;28892;55.640;37.532;2023-02-27T17:32:04;6.40;;;4.17;;
43297;SDS011;28892;55.640;37.532;2023-02-27T17:34:30;5.90;;;4.50;;
43297;SDS011;28892;55.640;37.532;2023-02-27T17:36:59;5.60;;;4.40;;
43297;SDS011;28892;55.640;37.532;2023-02-27T17:39:25;6.63;;;5.07;;
43297;SDS011;28892;55.640;37.532;2023-02-27T17:41:50;4.07;;;3.33;;
43297;SDS011;28892;55.640;37.532;2023-02-27T17:44:20;3.83;;;3.13;;
43297;SDS011;28892;55.640;37.532;2023-02-27T17:46:45;6.50;;;3.70;;
43297;SDS011;28892;55.640;37.532;2023-02-27T17:49:14;4.47;;;3.80;;
43297;SDS011;28892;55.640;37.532;2023-02-27T17:51:40;4.30;;;3.47;;